| time (UTC) | temp C | wind direction | speed KPH | gust KPH | rain 1hr cm | rain 24hr cm | rain mn cm | humidity % | barometer mb |
| 20260508201419 | 13 | 14 | 6.4 | 14.5 | 0.00 | 2.54 | 2.54 | 79 | 1006.9 |
| 20260508200907 | 13 | 341 | 4.8 | 9.7 | 0.00 | 2.54 | 2.54 | 79 | 1006.8 |
| 20260508195420 | 13 | 4 | 3.2 | 17.7 | 0.00 | 2.54 | 2.54 | 79 | 1006.3 |
| 20260508194912 | 13 | 350 | 4.8 | 11.3 | 0.00 | 2.54 | 2.54 | 80 | 1006.4 |
| 20260508193421 | 13 | 333 | 12.9 | 16.1 | 0.00 | 2.54 | 2.54 | 80 | 1006.3 |
| 20260508192420 | 13 | 347 | 6.4 | 17.7 | 0.03 | 2.54 | 2.54 | 81 | 1006.3 |
| 20260508191859 | 12 | 310 | 3.2 | 17.7 | 0.10 | 2.54 | 2.54 | 81 | 1006.3 |
| 20260508190422 | 12 | 347 | 3.2 | 14.5 | 0.15 | 2.54 | 2.54 | 82 | 1006.3 |
| 20260508185419 | 12 | 322 | 4.8 | 16.1 | 0.15 | 2.54 | 2.54 | 85 | 1006.2 |
| 20260508184420 | 12 | 71 | 3.2 | 12.9 | 0.15 | 2.54 | 2.54 | 87 | 1006.4 |
| 20260508183405 | 12 | 328 | 3.2 | 16.1 | 0.15 | 2.54 | 2.54 | 90 | 1006.5 |
| 20260508182405 | 12 | 79 | 3.2 | 6.4 | 0.08 | 2.46 | 2.49 | 89 | 1006.4 |
| 20260508181406 | 12 | 319 | 6.4 | 11.3 | 0.05 | 2.44 | 2.44 | 88 | 1006.5 |
| 20260508180406 | 13 | 341 | 3.2 | 16.1 | 0.00 | 2.39 | 2.39 | 84 | 1006.4 |
| 20260508175406 | 13 | 67 | 6.4 | 29.0 | 0.00 | 2.39 | 2.39 | 78 | 1006.3 |
| 20260508174406 | 13 | 340 | 3.2 | 20.9 | 0.00 | 2.39 | 2.39 | 76 | 1006.4 |
| 20260508173406 | 13 | 38 | 3.2 | 12.9 | 0.00 | 2.39 | 2.39 | 75 | 1006.3 |
| 20260508172844 | 13 | 92 | 1.6 | 17.7 | 0.00 | 2.39 | 2.39 | 73 | 1006.5 |
| 20260508171407 | 14 | 349 | 6.4 | 20.9 | 0.00 | 2.39 | 2.39 | 74 | 1006.5 |
| 20260508170406 | 13 | 317 | 8.0 | 24.1 | 0.00 | 2.39 | 2.39 | 74 | 1006.5 |
| 20260508165406 | 13 | 20 | 8.0 | 25.7 | 0.00 | 2.39 | 2.39 | 74 | 1006.4 |
| 20260508164406 | 14 | 320 | 3.2 | 12.9 | 0.00 | 2.39 | 2.39 | 73 | 1006.4 |
| 20260508163406 | 14 | 344 | 3.2 | 24.1 | 0.00 | 2.39 | 2.39 | 72 | 1006.5 |
| 20260508162406 | 15 | 20 | 14.5 | 20.9 | 0.00 | 2.39 | 2.39 | 66 | 1006.2 |
| 20260508161407 | 15 | 356 | 9.7 | 25.7 | 0.00 | 2.39 | 2.39 | 65 | 1006.1 |
| 20260508160406 | 15 | 241 | 4.8 | 22.5 | 0.00 | 2.39 | 2.39 | 68 | 1006.1 |
| 20260508155406 | 15 | 278 | 4.8 | 17.7 | 0.00 | 2.39 | 2.39 | 71 | 1005.8 |
| 20260508154844 | 15 | 325 | 6.4 | 25.7 | 0.00 | 2.39 | 2.39 | 68 | 1006.3 |
| 20260508153406 | 15 | 74 | 8.0 | 16.1 | 0.00 | 2.39 | 2.39 | 68 | 1006.4 |
| 20260508152406 | 15 | 327 | 1.6 | 20.9 | 0.00 | 2.39 | 2.39 | 71 | 1006.4 |
| 20260508151407 | 16 | 160 | 6.4 | 27.4 | 0.00 | 2.39 | 2.39 | 68 | 1006.3 |
| 20260508150406 | 16 | 359 | 4.8 | 17.7 | 0.00 | 2.39 | 2.39 | 67 | 1006.3 |
| 20260508145406 | 16 | 74 | 6.4 | 29.0 | 0.00 | 2.39 | 2.39 | 70 | 1006.1 |
| 20260508144406 | 16 | 226 | 3.2 | 24.1 | 0.00 | 2.39 | 2.39 | 68 | 1006.5 |
| 20260508144332 | 16 | 30 | 3.2 | 17.7 | 0.00 | 2.39 | 2.39 | 69 | 1006.4 |
| 20260508142407 | 16 | 31 | 3.2 | 16.1 | 0.00 | 2.39 | 2.39 | 66 | 1006.4 |
| 20260508141419 | 16 | 350 | 4.8 | 20.9 | 0.00 | 2.39 | 2.39 | 67 | 1006.5 |
| 20260508140406 | 16 | 115 | 14.5 | 17.7 | 0.00 | 2.39 | 2.39 | 65 | 1006.5 |
| 20260508135406 | 16 | 103 | 4.8 | 12.9 | 0.00 | 2.39 | 2.39 | 67 | 1006.8 |
| 20260508134406 | 16 | 302 | 4.8 | 20.9 | 0.00 | 2.39 | 2.39 | 69 | 1006.8 |
| 20260508133406 | 15 | 333 | 6.4 | 22.5 | 0.00 | 2.39 | 2.39 | 73 | 1006.8 |
| 20260508132405 | 15 | 252 | 3.2 | 16.1 | 0.00 | 2.39 | 2.39 | 73 | 1006.7 |
| 20260508131406 | 15 | 115 | 1.6 | 20.9 | 0.00 | 2.39 | 2.39 | 73 | 1006.8 |
| 20260508130406 | 16 | 27 | 6.4 | 17.7 | 0.00 | 2.39 | 2.39 | 70 | 1007.1 |
| 20260508125407 | 15 | 12 | 0.0 | 16.1 | 0.00 | 2.39 | 2.39 | 73 | 1007.1 |
| 20260508124406 | 16 | 189 | 1.6 | 14.5 | 0.00 | 2.39 | 2.39 | 70 | 1006.8 |
| 20260508123406 | 16 | 343 | 4.8 | 12.9 | 0.00 | 2.39 | 2.39 | 69 | 1006.9 |
| 20260508122406 | 16 | 14 | 4.8 | 20.9 | 0.00 | 2.39 | 2.39 | 71 | 1006.9 |
| 20260508122322 | 16 | 126 | 8.0 | 16.1 | 0.00 | 2.39 | 2.39 | 73 | 1007.1 |
| 20260508120407 | 16 | 321 | 3.2 | 11.3 | 0.00 | 2.39 | 2.39 | 74 | 1007.0 |
| 20260508115845 | 16 | 260 | 1.6 | 17.7 | 0.00 | 2.39 | 2.39 | 75 | 1007.2 |
| 20260508114406 | 15 | 256 | 6.4 | 12.9 | 0.00 | 2.39 | 2.39 | 78 | 1007.1 |
| 20260508113406 | 15 | 284 | 1.6 | 11.3 | 0.00 | 2.39 | 2.39 | 80 | 1007.2 |
| 20260508112406 | 15 | 147 | 1.6 | 9.7 | 0.00 | 2.39 | 2.39 | 77 | 1007.3 |
| 20260508111843 | 14 | 231 | 3.2 | 9.7 | 0.00 | 2.39 | 2.39 | 80 | 1007.3 |
| 20260508110419 | 13 | 286 | 1.6 | 22.5 | 0.00 | 2.39 | 2.39 | 81 | 1007.4 |
| 20260508105406 | 15 | 0 | 0.0 | 11.3 | 0.00 | 2.39 | 2.39 | 82 | 1007.5 |
| 20260508104406 | 15 | 129 | 1.6 | 12.9 | 0.00 | 2.39 | 2.39 | 79 | 1007.5 |
| 20260508103405 | 15 | 285 | 0.0 | 17.7 | 0.00 | 2.39 | 2.39 | 79 | 1007.4 |
| 20260508102406 | 15 | 177 | 14.5 | 20.9 | 0.00 | 2.39 | 2.39 | 75 | 1007.0 |
| 20260508101406 | 15 | 194 | 3.2 | 14.5 | 0.00 | 2.39 | 2.39 | 76 | 1007.1 |
| 20260508100406 | 15 | 259 | 1.6 | 14.5 | 0.00 | 2.39 | 2.39 | 78 | 1007.0 |
| 20260508095848 | 13 | 307 | 1.6 | 22.5 | 0.00 | 2.39 | 2.39 | 78 | 1007.3 |
| 20260508094406 | 15 | 271 | 8.0 | 16.1 | 0.05 | 2.39 | 2.39 | 73 | 1007.2 |
| 20260508093407 | 14 | 354 | 8.0 | 27.4 | 0.08 | 2.39 | 2.39 | 75 | 1006.9 |
| 20260508092406 | 13 | 55 | 4.8 | 12.9 | 0.15 | 2.39 | 2.39 | 79 | 1007.0 |
| 20260508091408 | 12 | 334 | 1.6 | 17.7 | 0.23 | 2.39 | 2.39 | 83 | 1006.9 |
| 20260508090406 | 12 | 351 | 4.8 | 11.3 | 0.38 | 2.39 | 2.39 | 88 | 1007.2 |
| 20260508085406 | 11 | 338 | 8.0 | 14.5 | 0.38 | 2.39 | 2.39 | 87 | 1007.5 |
| 20260508084405 | 11 | 337 | 6.4 | 22.5 | 0.33 | 2.34 | 2.34 | 87 | 1007.2 |
| 20260508083406 | 11 | 8 | 6.4 | 16.1 | 0.30 | 2.31 | 2.31 | 86 | 1007.3 |
| 20260508082753 | 15 | 42 | 0.0 | 6.4 | 0.15 | 2.16 | 2.16 | 76 | 1007.1 |
| 20260508082429 | 12 | 48 | 3.2 | 11.3 | 0.23 | 2.24 | 2.26 | 84 | 1007.2 |
| 20260508080354 | 14 | 238 | 1.6 | 11.3 | 0.00 | 2.01 | 2.01 | 75 | 1006.8 |
| 20260508075357 | 13 | 100 | 1.6 | 11.3 | 0.00 | 2.01 | 2.01 | 77 | 1006.4 |
| 20260508074354 | 13 | 206 | 4.8 | 9.7 | 0.00 | 2.01 | 2.01 | 75 | 1006.7 |
| 20260508073355 | 13 | 17 | 6.4 | 11.3 | 0.00 | 2.01 | 2.01 | 76 | 1006.7 |
| 20260508072354 | 12 | 229 | 3.2 | 12.9 | 0.00 | 2.01 | 2.01 | 76 | 1006.1 |
| 20260508071836 | 12 | 1 | 1.6 | 16.1 | 0.00 | 2.01 | 2.01 | 77 | 1006.1 |
| 20260508070354 | 11 | 322 | 4.8 | 14.5 | 0.00 | 2.01 | 2.01 | 78 | 1006.3 |
| 20260508065831 | 12 | 307 | 3.2 | 16.1 | 0.00 | 2.01 | 2.01 | 75 | 1006.2 |
| 20260508064354 | 12 | 9 | 6.4 | 16.1 | 0.00 | 2.01 | 2.01 | 76 | 1006.0 |
| 20260508063354 | 11 | 341 | 6.4 | 14.5 | 0.00 | 2.01 | 2.01 | 76 | 1006.0 |
| 20260508062354 | 11 | 289 | 4.8 | 17.7 | 0.00 | 2.01 | 2.01 | 73 | 1006.0 |
| 20260508061354 | 11 | 260 | 4.8 | 14.5 | 0.05 | 2.01 | 2.01 | 72 | 1005.8 |
| 20260508060353 | 11 | 246 | 3.2 | 16.1 | 0.05 | 2.01 | 2.01 | 74 | 1006.1 |
| 20260508055354 | 11 | 315 | 4.8 | 14.5 | 0.18 | 2.01 | 2.01 | 76 | 1005.9 |
| 20260508054345 | 11 | 359 | 8.0 | 24.1 | 0.23 | 2.01 | 2.01 | 81 | 1006.1 |
| 20260508054259 | 11 | 31 | 12.9 | 22.5 | 0.23 | 2.01 | 2.01 | 93 | 1005.9 |
| 20260508052342 | 11 | 19 | 6.4 | 16.1 | 0.23 | 2.01 | 2.01 | 96 | 1006.3 |
| 20260508051342 | 11 | 32 | 6.4 | 22.5 | 0.18 | 1.96 | 1.96 | 97 | 1006.5 |
| 20260508050343 | 12 | 333 | 6.4 | 14.5 | 0.20 | 1.96 | 1.96 | 97 | 1006.4 |
| 20260508045342 | 12 | 39 | 0.0 | 9.7 | 0.10 | 1.83 | 1.83 | 97 | 1006.2 |
| 20260508044344 | 12 | 53 | 4.8 | 6.4 | 0.15 | 1.78 | 1.78 | 97 | 1006.4 |
| 20260508043342 | 12 | 123 | 4.8 | 11.3 | 0.25 | 1.78 | 1.78 | 97 | 1006.3 |
| 20260508042342 | 12 | 159 | 3.2 | 11.3 | 0.43 | 1.78 | 1.78 | 97 | 1006.4 |
| 20260508041342 | 12 | 346 | 1.6 | 11.3 | 0.46 | 1.78 | 1.78 | 97 | 1006.8 |
| 20260508040342 | 12 | 160 | 4.8 | 11.3 | 0.43 | 1.75 | 1.75 | 97 | 1006.9 |
| 20260508035342 | 12 | 91 | 8.0 | 12.9 | 0.43 | 1.73 | 1.73 | 97 | 1006.9 |
| 20260508034342 | 12 | 256 | 4.8 | 22.5 | 0.36 | 1.63 | 1.63 | 97 | 1007.1 |
| 20260508033343 | 12 | 351 | 3.2 | 16.1 | 0.25 | 1.52 | 1.52 | 97 | 1007.0 |
| 20260508032342 | 12 | 172 | 4.8 | 12.9 | 0.10 | 1.35 | 1.35 | 97 | 1007.3 |
| 20260508031342 | 12 | 233 | 3.2 | 12.9 | 0.33 | 1.32 | 1.32 | 97 | 1007.3 |
| 20260508030342 | 12 | 15 | 3.2 | 14.5 | 0.56 | 1.32 | 1.32 | 96 | 1007.5 |
| 20260508025342 | 12 | 242 | 6.4 | 14.5 | 0.61 | 1.30 | 1.30 | 96 | 1007.6 |
| 20260508024827 | 12 | 310 | 3.2 | 24.1 | 0.64 | 1.27 | 1.27 | 96 | 1007.7 |
| 20260508023342 | 12 | 180 | 9.7 | 17.7 | 0.74 | 1.27 | 1.27 | 96 | 1008.0 |
| 20260508022342 | 12 | 34 | 3.2 | 9.7 | 0.81 | 1.24 | 1.24 | 95 | 1008.1 |
| 20260508021342 | 12 | 247 | 1.6 | 12.9 | 0.61 | 0.99 | 0.99 | 95 | 1008.4 |
| 20260508020342 | 11 | 122 | 1.6 | 11.3 | 0.41 | 0.76 | 0.76 | 95 | 1008.4 |
| 20260508015342 | 11 | 43 | 1.6 | 11.3 | 0.33 | 0.69 | 0.69 | 94 | 1008.8 |
| 20260508014342 | 12 | 97 | 9.7 | 14.5 | 0.30 | 0.64 | 0.64 | 94 | 1009.2 |
| 20260508013342 | 12 | 24 | 8.0 | 12.9 | 0.20 | 0.53 | 0.53 | 94 | 1009.2 |
| 20260508012342 | 12 | 10 | 1.6 | 9.7 | 0.13 | 0.43 | 0.43 | 94 | 1009.2 |
| 20260508011342 | 12 | 77 | 8.0 | 11.3 | 0.13 | 0.38 | 0.38 | 93 | 1009.4 |
| 20260508010823 | 12 | 43 | 1.6 | 6.4 | 0.10 | 0.36 | 0.36 | 94 | 1009.6 |
| 20260508005342 | 12 | 172 | 3.2 | 12.9 | 0.10 | 0.36 | 0.36 | 94 | 1009.4 |
| 20260508004342 | 12 | 231 | 3.2 | 6.4 | 0.08 | 0.33 | 0.33 | 93 | 1009.7 |
| 20260508003342 | 12 | 80 | 4.8 | 6.4 | 0.10 | 0.33 | 0.33 | 93 | 1010.1 |
| 20260508002342 | 12 | 332 | 3.2 | 6.4 | 0.18 | 0.30 | 0.30 | 93 | 1010.1 |
| 20260508001342 | 12 | 258 | 0.0 | 4.8 | 0.25 | 0.25 | 0.25 | 93 | 1010.1 |
| 20260508000346 | 12 | 25 | 0.0 | 6.4 | 0.25 | 0.25 | 0.25 | 93 | 1010.0 |
| 20260507235342 | 11 | 357 | 1.6 | 11.3 | 0.25 | 0.25 | 0.25 | 92 | 1010.4 |
| 20260507234342 | 11 | 345 | 3.2 | 6.4 | 0.25 | 0.25 | 0.25 | 92 | 1010.6 |
| 20260507233342 | 11 | 357 | 1.6 | 6.4 | 0.23 | 0.23 | 0.23 | 91 | 1010.6 |
| 20260507232329 | 11 | 340 | 3.2 | 6.4 | 0.13 | 0.13 | 0.13 | 89 | 1010.7 |
| 20260507231330 | 12 | 346 | 3.2 | 4.8 | 0.00 | 0.00 | 0.00 | 86 | 1010.6 |
| 20260507230343 | 11 | 326 | 0.0 | 3.2 | 0.00 | 0.00 | 0.00 | 86 | 1010.9 |
| 20260507225330 | 11 | 330 | 3.2 | 4.8 | 0.00 | 0.00 | 0.00 | 86 | 1010.9 |
| 20260507224330 | 11 | 22 | 0.0 | 9.7 | 0.00 | 0.00 | 0.00 | 86 | 1011.1 |
| 20260507223330 | 11 | 325 | 3.2 | 6.4 | 0.00 | 0.00 | 0.00 | 86 | 1010.9 |
| 20260507222330 | 12 | 353 | 0.0 | 1.6 | 0.00 | 0.00 | 0.00 | 82 | 1011.0 |
| 20260507221331 | 12 | 236 | 0.0 | 3.2 | 0.00 | 0.00 | 0.00 | 78 | 1011.1 |
| 20260507220326 | 12 | 75 | 0.0 | 3.2 | 0.00 | 0.00 | 0.00 | 76 | 1011.1 |
| 20260507215326 | 12 | 52 | 4.8 | 9.7 | 0.00 | 0.00 | 0.00 | 77 | 1011.0 |
| 20260507214319 | 12 | 282 | 0.0 | 3.2 | 0.00 | 0.00 | 0.00 | 77 | 1011.2 |
| 20260507213320 | 12 | 182 | 0.0 | 4.8 | 0.00 | 0.00 | 0.00 | 76 | 1011.3 |
| 20260507212318 | 12 | 336 | 1.6 | 4.8 | 0.00 | 0.00 | 0.00 | 76 | 1011.4 |
| 20260507211322 | 12 | 141 | 1.6 | 4.8 | 0.00 | 0.00 | 0.00 | 75 | 1011.4 |
| 20260507210812 | 11 | 4 | 3.2 | 6.4 | 0.00 | 0.00 | 0.00 | 75 | 1011.4 |
| 20260507205801 | 11 | 11 | 3.2 | 6.4 | 0.00 | 0.00 | 0.00 | 76 | 1011.4 |
| 20260507204320 | 11 | 337 | 4.8 | 9.7 | 0.00 | 0.00 | 0.00 | 76 | 1011.4 |
| 20260507203321 | 11 | 343 | 3.2 | 4.8 | 0.00 | 0.00 | 0.00 | 75 | 1011.6 |
| 20260507202754 | 11 | 334 | 3.2 | 6.4 | 0.00 | 0.00 | 0.00 | 75 | 1011.2 |